메인 페이지
METAR-TAF:

METAR-TAF

공항 :

테드 스티븐스 앵커리지 국제공항

앵커리지, 알래스카, 미국

위도: 61-10-28N, 경도: 149-59-46W, 고도: 44m

현재 날씨관측

예보는 43분 전, 13:53시(UTC)에 발표되었습니다.
4kt
온도 -11°C
습도 85%
기압 1014 hPa
시정: 16.1km
고도 20000ft 상공 구름 보통

METAR: PANC 261353Z 35004KT 10SM SCT200 M11/M13 A2994 RMK AO2 SLP143 T11111133 $

시각: 05:36 (14:36 UTC)

예보

예보는 2 시간 54분 전, 11:42시(UTC)에 발표되었습니다.
예보 대상 시간: 26일 12시부터 27일 18시까지 (UTC)
여러 방향의 바람 2kt
시정: 10km
고도 500ft 상공 구름 조금
고도 25000ft 상공 구름 보통
시계 내 안개
26일 1600시부터 (UTC)
북북동5kt
시정: 10km
고도 5000ft 상공 구름 보통
고도 8000ft 상공 구름 많음
26일 1800시부터 (UTC)
8kt
시정: 10km
고도 4000ft 상공 구름 조금
고도 6000ft 상공 구름 많음
시계 내 소나기
26일 2200시부터 (UTC)
8kt
시정: 10km
고도 4000ft 상공 구름 조금
고도 6000ft 상공 구름 많음
시계 내 소나기
27일 0800시부터 (UTC)
10kt, 순간 최대 풍속 20kt
시정: 10km
고도 10000ft 상공 구름 많음

TAF: PANC 261142Z 2612/2718 VRB02KT P6SM VCFG FEW005 SCT250 FM261600 02005KT P6SM SCT050 BKN080 FM261800 01008KT P6SM VCSH FEW040 BKN060 FM262200 01008KT P6SM VCSH FEW040 BKN060 WS020/13035KT FM270800 35010G20KT P6SM BKN100

4,000개 이상의 공항 관측 자료 및 예보 (METAR 및 TAF 보고).

지도상에서 검색 가능한 기상관측소가 노란 점과 빨간 점으로 표시되어 있습니다.

기상관측소 명을 보려면 표시 위로 마우스를 이동하세요.

날씨 관측과 예보를 보려면 클릭하세요.

지도 변경 : 확대하려면 엑스 표시가 있는 녹색 버튼, 축소하려면 빼기 표시가 있는 녹색 버튼, 다음 페이지의 지도를 보려면 녹색 화살표를 클릭하세요.


METAR-TAF: